Time;durP1;ratioP1;P1;durP2;ratioP2;P2;SDS_P1;SDS_P2;PMS_P1;PMS_P2;Temp;Humidity;BMP_temperature;BMP_pressure;BME280_temperature;BME280_humidity;BME280_pressure;Samples;Min_cycle;Max_cycle;Signal;HPM_P1;HPM_P2
2022/02/23 00:02:18;;;;;;;9.93;6.15;;;;;;;4.03;78.42;143256.20;1724307;82;21047;-57
2022/02/23 00:04:44;;;;;;;9.88;5.35;;;;;;;4.08;78.18;143268.67;1724625;83;20997;-56
2022/02/23 00:07:11;;;;;;;10.38;5.60;;;;;;;4.15;78.00;143284.91;1686978;85;21086;-57
2022/02/23 00:09:38;;;;;;;10.82;5.35;;;;;;;4.20;77.74;143297.38;1724251;83;21051;-57
2022/02/23 00:12:06;;;;;;;10.13;5.70;;;;;;;4.23;77.49;143304.86;1724243;83;21061;-59
2022/02/23 00:14:34;;;;;;;10.43;5.87;;;;;;;4.25;77.29;143309.86;1731921;82;21089;-57
2022/02/23 00:17:01;;;;;;;9.68;5.97;;;;;;;4.26;77.17;143312.33;1731950;82;21049;-58
2022/02/23 00:19:28;;;;;;;11.60;6.65;;;;;;;4.29;76.95;143318.56;1731903;82;21021;-57
2022/02/23 00:21:55;;;;;;;15.13;7.58;;;;;;;4.30;76.81;143321.05;1731589;81;21193;-57
2022/02/23 00:24:21;;;;;;;16.27;9.05;;;;;;;4.33;76.58;143328.58;1731120;82;21080;-57
2022/02/23 00:26:48;;;;;;;18.20;10.85;;;;;;;4.34;76.47;143332.28;1730233;83;21031;-58
2022/02/23 00:29:15;;;;;;;21.65;10.98;;;;;;;4.36;76.32;143336.05;1728509;83;21002;-57
2022/02/23 00:31:42;;;;;;;23.42;11.45;;;;;;;4.37;76.26;143338.53;1731532;83;21050;-58
2022/02/23 00:34:09;;;;;;;18.95;9.65;;;;;;;4.37;76.22;143337.28;1732157;82;21006;-57
2022/02/23 00:36:37;;;;;;;20.57;11.20;;;;;;;4.34;76.15;143331.05;1731967;82;21547;-57
2022/02/23 00:39:04;;;;;;;21.35;10.68;;;;;;;4.31;76.17;143323.58;1731858;83;21033;-57
2022/02/23 00:41:31;;;;;;;21.40;11.03;;;;;;;4.27;76.32;143313.58;1731436;83;21053;-57
2022/02/23 00:43:57;;;;;;;19.92;11.40;;;;;;;4.23;76.50;143303.63;1732141;82;21045;-57
2022/02/23 00:46:24;;;;;;;20.92;11.05;;;;;;;4.20;76.70;143296.09;1731658;83;21014;-56
2022/02/23 00:48:53;;;;;;;22.32;11.45;;;;;;;4.13;76.77;143281.14;1727156;83;21545;-57
2022/02/23 00:51:21;;;;;;;22.27;11.57;;;;;;;4.08;76.94;143268.67;1717464;83;21032;-58
2022/02/23 00:53:47;;;;;;;20.60;10.65;;;;;;;4.05;77.23;143261.19;1730864;83;21488;-57
2022/02/23 00:56:14;;;;;;;21.37;11.40;;;;;;;3.98;77.40;143242.48;1729592;83;21069;-58
2022/02/23 00:58:40;;;;;;;21.68;11.15;;;;;;;3.93;77.54;143231.25;1727154;83;21015;-58
2022/02/23 01:01:07;;;;;;;19.60;10.68;;;;;;;3.84;77.83;143208.78;1726972;83;21482;-57
2022/02/23 01:03:34;;;;;;;19.87;11.08;;;;;;;3.77;78.15;143192.59;1731596;83;21508;-58
2022/02/23 01:06:01;;;;;;;18.57;11.78;;;;;;;3.73;78.46;143182.61;1731256;83;21013;-57
2022/02/23 01:08:27;;;;;;;20.00;11.30;;;;;;;3.69;78.72;143173.89;1729943;83;21018;-58
2022/02/23 01:10:54;;;;;;;20.72;10.95;;;;;;;3.68;79.25;143170.13;1731780;83;21010;-58
2022/02/23 01:13:20;;;;;;;20.85;11.57;;;;;;;3.72;79.59;143178.89;1732108;81;21036;-58
2022/02/23 01:15:49;;;;;;;17.05;9.53;;;;;;;3.80;79.86;143200.06;1731887;81;21143;-58
2022/02/23 01:18:16;;;;;;;17.17;9.60;;;;;;;3.94;79.94;143233.72;1731974;82;21034;-57
2022/02/23 01:20:43;;;;;;;15.68;9.15;;;;;;;4.04;79.82;143258.67;1731838;82;21025;-57
2022/02/23 01:23:10;;;;;;;18.00;9.83;;;;;;;4.14;79.77;143282.37;1731925;81;21575;-57
2022/02/23 01:25:37;;;;;;;16.50;9.95;;;;;;;4.21;79.55;143298.63;1729873;82;21041;-57
2022/02/23 01:28:07;;;;;;;18.12;10.58;;;;;;;4.25;79.46;143308.56;1726892;82;21027;-57
2022/02/23 01:30:35;;;;;;;16.25;10.30;;;;;;;4.29;79.36;143319.81;1726854;83;21063;-58
2022/02/23 01:33:03;;;;;;;22.05;11.60;;;;;;;4.34;79.08;143331.05;1727204;83;21015;-59
2022/02/23 01:35:30;;;;;;;22.70;11.60;;;;;;;4.34;78.98;143332.28;1727210;82;21040;-58
2022/02/23 01:37:58;;;;;;;20.20;10.45;;;;;;;4.35;78.81;143333.53;1730960;83;21073;-58
2022/02/23 01:40:25;;;;;;;22.87;11.25;;;;;;;4.34;78.84;143331.05;1732349;83;21033;-60
2022/02/23 01:42:53;;;;;;;17.35;10.78;;;;;;;4.37;78.90;143337.28;1731819;82;21061;-58
2022/02/23 01:45:20;;;;;;;20.75;10.75;;;;;;;4.39;79.09;143343.53;1732325;83;21531;-58
2022/02/23 01:47:47;;;;;;;17.42;10.80;;;;;;;4.44;79.23;143356.00;1731685;83;21062;-59
2022/02/23 01:50:16;;;;;;;17.73;10.25;;;;;;;4.48;79.40;143364.77;1732057;82;21033;-58
2022/02/23 01:52:44;;;;;;;20.55;10.13;;;;;;;4.49;79.54;143368.48;1731572;83;21064;-58
2022/02/23 01:55:11;;;;;;;18.07;9.33;;;;;;;4.50;79.81;143369.72;1731618;83;21061;-60
2022/02/23 01:57:39;;;;;;;17.73;9.43;;;;;;;4.52;79.96;143374.72;1730061;81;21512;-60
2022/02/23 02:00:11;;;;;;;17.82;9.03;;;;;;;4.50;80.06;143371.00;1732346;82;21186;-59
2022/02/23 02:02:39;;;;;;;16.48;9.40;;;;;;;4.42;80.31;143351.00;1732025;82;21551;-59
2022/02/23 02:05:07;;;;;;;15.72;9.15;;;;;;;4.40;80.57;143344.77;1731867;82;21029;-56
2022/02/23 02:07:35;;;;;;;16.15;8.65;;;;;;;4.39;80.72;143342.28;1729406;83;21059;-56
2022/02/23 02:10:06;;;;;;;16.60;9.05;;;;;;;4.31;81.05;143324.81;1726909;83;21076;-56
2022/02/23 02:12:34;;;;;;;14.15;8.75;;;;;;;4.21;81.49;143299.86;1730684;83;21052;-56
2022/02/23 02:15:03;;;;;;;11.65;7.83;;;;;;;4.20;82.01;143296.09;1731830;82;21508;-57
2022/02/23 02:17:32;;;;;;;12.98;7.37;;;;;;;4.08;82.42;143268.67;1732070;82;21101;-57
2022/02/23 02:19:58;;;;;;;10.58;7.08;;;;;;;3.99;83.02;143246.20;1728495;83;21000;-58
2022/02/23 02:22:29;;;;;;;11.90;7.42;;;;;;;3.88;83.63;143218.78;1726863;83;21027;-57
2022/02/23 02:24:59;;;;;;;12.80;7.60;;;;;;;3.83;84.14;143206.31;1727128;83;21075;-57
2022/02/23 02:27:27;;;;;;;12.18;7.28;;;;;;;3.86;84.25;143215.02;1729753;82;21549;-57
2022/02/23 02:29:54;;;;;;;10.68;5.75;;;;;;;3.85;84.02;143211.31;1732316;82;21006;-57
2022/02/23 02:32:21;;;;;;;11.70;6.33;;;;;;;3.79;82.82;143196.31;1729094;83;21000;-57
2022/02/23 02:34:47;;;;;;;10.05;5.22;;;;;;;3.69;82.30;143172.66;1726804;83;21023;-58
2022/02/23 02:37:15;;;;;;;11.78;5.12;;;;;;;3.61;81.82;143152.67;1725392;83;21016;-58
2022/02/23 02:39:43;;;;;;;10.72;5.90;;;;;;;3.47;81.67;143119.03;1726563;83;21035;-58
2022/02/23 02:42:10;;;;;;;13.80;5.12;;;;;;;3.35;81.80;143089.09;1726835;83;21083;-60
2022/02/23 02:44:37;;;;;;;11.97;5.42;;;;;;;3.28;80.98;143072.87;1726900;83;21043;-58
2022/02/23 02:47:04;;;;;;;9.95;4.37;;;;;;;3.21;79.69;143055.45;1727007;83;21071;-58
2022/02/23 02:49:32;;;;;;;11.33;4.10;;;;;;;3.17;79.52;143046.70;1730590;83;21495;-59
2022/02/23 02:51:59;;;;;;;8.15;4.20;;;;;;;3.19;79.20;143051.70;1732320;82;21010;-58
2022/02/23 02:54:26;;;;;;;11.48;4.75;;;;;;;3.22;78.13;143059.17;1732187;83;21077;-59
2022/02/23 02:56:53;;;;;;;7.90;3.27;;;;;;;3.23;77.53;143060.41;1731808;82;21526;-58
2022/02/23 02:59:19;;;;;;;8.73;3.72;;;;;;;3.21;76.20;143056.69;1728507;82;21039;-58
2022/02/23 03:01:46;;;;;;;7.60;2.95;;;;;;;3.14;75.01;143038.00;1728922;81;21029;-60
2022/02/23 03:04:13;;;;;;;8.70;3.05;;;;;;;3.07;74.55;143021.78;1732327;83;21025;-58
2022/02/23 03:06:40;;;;;;;8.18;2.77;;;;;;;3.01;73.91;143008.08;1730993;83;21051;-58
2022/02/23 03:09:07;;;;;;;7.72;3.33;;;;;;;3.05;73.48;143016.78;1726890;83;21517;-58
2022/02/23 03:11:35;;;;;;;8.28;3.65;;;;;;;3.04;72.83;143015.55;1726900;82;21060;-58
2022/02/23 03:14:02;;;;;;;7.08;3.08;;;;;;;3.04;72.92;143014.31;1726717;82;21580;-58
2022/02/23 03:16:30;;;;;;;8.68;3.05;;;;;;;3.07;72.72;143021.78;1726779;83;21077;-57
2022/02/23 03:18:57;;;;;;;5.67;2.62;;;;;;;3.12;72.18;143033.00;1729862;83;21029;-57
2022/02/23 03:21:23;;;;;;;8.93;2.98;;;;;;;3.12;71.91;143034.25;1732208;81;21033;-57
2022/02/23 03:23:50;;;;;;;8.35;3.62;;;;;;;3.08;71.51;143024.30;1732115;82;21069;-58
2022/02/23 03:26:17;;;;;;;6.28;2.70;;;;;;;3.08;71.33;143023.02;1732068;82;21098;-58
2022/02/23 03:28:44;;;;;;;12.07;2.90;;;;;;;3.05;70.99;143016.78;1731732;81;21068;-63
2022/02/23 03:31:11;;;;;;;6.60;2.77;;;;;;;3.03;71.19;143013.06;1729574;82;21014;-58
2022/02/23 03:33:42;;;;;;;7.35;3.27;;;;;;;3.04;71.33;143014.31;1732478;83;21039;-59
2022/02/23 03:36:10;;;;;;;5.60;3.00;;;;;;;3.04;71.52;143014.31;1731601;81;21045;-59
2022/02/23 03:38:37;;;;;;;7.83;2.60;;;;;;;3.07;71.53;143021.78;1731517;81;21136;-59
2022/02/23 03:41:05;;;;;;;5.55;2.87;;;;;;;3.04;70.64;143014.31;1732178;81;21023;-58
2022/02/23 03:43:32;;;;;;;7.62;3.40;;;;;;;2.92;70.86;142984.39;1732364;81;21540;-57
2022/02/23 03:46:26;;;;;;;9.33;3.20;;;;;;;2.85;70.95;142968.22;1731986;83;21046;-56
2022/02/23 03:48:53;;;;;;;6.37;2.85;;;;;;;2.78;71.02;142950.77;1732221;81;21137;-59
2022/02/23 03:51:19;;;;;;;7.03;2.87;;;;;;;2.68;70.89;142925.84;1727390;83;21027;-60
2022/02/23 03:53:46;;;;;;;8.83;2.85;;;;;;;2.57;70.73;142899.66;1726166;83;21031;-59
2022/02/23 03:56:55;;;;;;;5.80;2.80;;;;;;;2.45;70.74;142869.78;1726065;83;20987;-59
2022/02/23 03:58:44;;;;;;;4.90;2.77;;;;;;;2.34;70.59;142844.87;1714824;83;21019;-59
2022/02/23 04:01:10;;;;;;;6.80;2.87;;;;;;;2.25;70.47;142822.44;1726603;83;20975;-55
2022/02/23 04:03:37;;;;;;;5.95;2.60;;;;;;;2.15;70.59;142797.53;1731240;81;21488;-57
2022/02/23 04:06:04;;;;;;;5.00;2.47;;;;;;;2.09;70.25;142782.61;1731625;81;21022;-59
2022/02/23 04:08:32;;;;;;;7.75;2.58;;;;;;;2.03;70.19;142768.88;1714934;81;21082;-57
2022/02/23 04:10:59;;;;;;;7.37;2.50;;;;;;;2.03;69.87;142767.64;1726948;83;21530;-59
2022/02/23 04:13:25;;;;;;;4.62;2.20;;;;;;;1.93;69.49;142745.25;1726689;83;21588;-59
2022/02/23 04:15:52;;;;;;;5.00;2.30;;;;;;;1.82;69.51;142717.84;1726502;83;21023;-60
2022/02/23 04:18:19;;;;;;;5.62;2.52;;;;;;;1.75;69.86;142700.41;1726804;83;20984;-59
2022/02/23 04:20:45;;;;;;;6.92;2.65;;;;;;;1.67;70.11;142680.48;1726730;83;21036;-60
2022/02/23 04:23:12;;;;;;;7.33;2.40;;;;;;;1.62;70.40;142668.05;1731030;83;21088;-58
2022/02/23 04:25:38;;;;;;;4.65;2.37;;;;;;;1.60;70.57;142663.06;1732200;81;21239;-59
2022/02/23 04:28:05;;;;;;;5.97;2.50;;;;;;;1.57;70.73;142655.59;1727650;83;21048;-58
2022/02/23 04:30:32;;;;;;;4.78;2.22;;;;;;;1.49;70.87;142638.16;1726562;82;21076;-58
2022/02/23 04:32:58;;;;;;;5.35;2.40;;;;;;;1.45;71.04;142628.23;1727050;82;21038;-58
2022/02/23 04:35:25;;;;;;;4.83;2.00;;;;;;;1.40;71.15;142615.80;1731868;83;21073;-58
2022/02/23 04:37:52;;;;;;;4.72;2.30;;;;;;;1.33;71.35;142598.36;1731936;82;21053;-59
2022/02/23 04:40:19;;;;;;;13.38;2.58;;;;;;;1.28;71.43;142585.91;1727494;83;21494;-61
2022/02/23 04:42:47;;;;;;;5.65;2.33;;;;;;;1.24;71.51;142577.19;1726772;83;21042;-59
2022/02/23 04:45:14;;;;;;;6.62;2.45;;;;;;;1.23;71.60;142573.47;1726774;83;21075;-60
2022/02/23 04:47:40;;;;;;;6.65;2.30;;;;;;;1.21;71.73;142568.48;1726509;83;21063;-61
2022/02/23 04:50:08;;;;;;;5.15;2.67;;;;;;;1.15;71.75;142553.58;1730849;83;21021;-61
2022/02/23 04:52:36;;;;;;;7.55;2.75;;;;;;;1.08;71.94;142538.62;1731723;83;21041;-60
2022/02/23 04:55:04;;;;;;;9.38;3.10;;;;;;;1.02;72.06;142523.70;1722407;83;21027;-58
2022/02/23 04:57:31;;;;;;;4.62;2.42;;;;;;;1.01;72.13;142521.19;1726572;82;21063;-60
2022/02/23 04:59:57;;;;;;;4.42;2.55;;;;;;;0.99;72.16;142514.97;1726477;82;21039;-58
2022/02/23 05:02:24;;;;;;;5.87;2.37;;;;;;;1.00;72.20;142518.72;1726494;83;21550;-60
2022/02/23 05:04:51;;;;;;;5.62;2.67;;;;;;;1.03;72.22;142526.17;1726801;83;21502;-59
2022/02/23 05:07:18;;;;;;;4.87;2.70;;;;;;;1.07;72.08;142534.91;1730611;83;21077;-59
2022/02/23 05:09:49;;;;;;;6.15;2.52;;;;;;;1.05;71.92;142531.16;1731588;81;21073;-59
2022/02/23 05:12:16;;;;;;;7.97;2.35;;;;;;;1.01;71.97;142521.19;1731557;83;21041;-59
2022/02/23 05:14:43;;;;;;;6.92;2.90;;;;;;;1.05;71.97;142531.16;1726945;83;21059;-57
2022/02/23 05:17:11;;;;;;;6.10;2.70;;;;;;;1.18;71.82;142561.03;1726702;83;21155;-63
2022/02/23 05:19:38;;;;;;;7.78;2.70;;;;;;;1.24;71.64;142575.94;1727088;81;21035;-58
2022/02/23 05:22:06;;;;;;;5.72;2.62;;;;;;;1.30;71.49;142590.91;1732257;81;21025;-57
2022/02/23 05:24:34;;;;;;;7.67;2.55;;;;;;;1.80;71.22;142711.61;1731581;82;21609;-59
2022/02/23 05:27:02;;;;;;;7.00;3.00;;;;;;;2.98;69.35;142999.38;1732092;83;21005;-59
2022/02/23 05:29:33;;;;;;;9.75;3.20;;;;;;;4.27;66.14;143313.58;1728293;83;21055;-57
2022/02/23 05:32:00;;;;;;;7.62;3.60;;;;;;;5.59;62.59;143636.89;1726413;83;21106;-58
2022/02/23 05:34:27;;;;;;;6.33;3.47;;;;;;;6.88;58.48;143950.66;1726420;82;21039;-58
2022/02/23 05:36:53;;;;;;;7.37;3.35;;;;;;;7.95;55.28;144213.34;1727664;83;21554;-59
2022/02/23 05:39:21;;;;;;;6.22;3.30;;;;;;;9.01;52.83;144472.59;1709064;83;21098;-57
2022/02/23 05:41:48;;;;;;;6.40;2.92;;;;;;;10.14;48.62;144749.55;1714748;83;21089;-58
2022/02/23 05:44:15;;;;;;;10.15;3.55;;;;;;;11.10;47.00;144982.92;1731631;81;21037;-57
2022/02/23 05:46:42;;;;;;;12.43;3.75;;;;;;;12.06;43.41;145218.91;1731691;82;21013;-58
2022/02/23 05:49:08;;;;;;;9.63;3.67;;;;;;;12.65;40.96;145363.39;1731460;83;21013;-58
2022/02/23 05:51:39;;;;;;;8.20;3.47;;;;;;;13.23;39.57;145507.89;1731811;81;21004;-56
2022/02/23 05:54:06;;;;;;;7.20;3.15;;;;;;;13.33;38.98;145530.53;1715347;82;21023;-58
2022/02/23 05:56:34;;;;;;;7.75;3.15;;;;;;;13.71;37.58;145623.58;1721367;83;21025;-58
2022/02/23 05:59:02;;;;;;;8.40;3.20;;;;;;;13.64;37.00;145608.50;1728690;81;21494;-58
2022/02/23 06:01:30;;;;;;;6.10;2.98;;;;;;;13.58;36.72;145593.39;1731188;81;21453;-57
2022/02/23 06:03:57;;;;;;;4.92;2.40;;;;;;;13.82;35.16;145651.27;1731257;82;21062;-58
2022/02/23 06:06:26;;;;;;;5.47;2.62;;;;;;;14.10;34.75;145721.67;1732516;82;21536;-57
2022/02/23 06:08:54;;;;;;;8.40;2.87;;;;;;;14.19;34.65;145743.03;1731543;82;21030;-57
2022/02/23 06:11:20;;;;;;;6.33;2.83;;;;;;;14.62;34.01;145847.52;1726773;82;21016;-59
2022/02/23 06:13:51;;;;;;;5.30;2.58;;;;;;;15.04;32.93;145950.73;1726085;83;21047;-57
2022/02/23 06:16:15;;;;;;;5.85;2.60;;;;;;;15.08;32.77;145960.77;1708746;83;21029;-57
2022/02/23 06:18:43;;;;;;;7.60;2.58;;;;;;;15.60;32.25;146089.20;1712549;83;21004;-58
2022/02/23 06:21:10;;;;;;;5.65;2.75;;;;;;;16.04;31.35;146197.53;1715201;82;21020;-60
2022/02/23 06:23:37;;;;;;;5.75;2.95;;;;;;;16.13;30.31;146218.94;1717637;82;21523;-58
2022/02/23 06:26:05;;;;;;;5.40;2.30;;;;;;;16.13;30.31;146218.94;1712342;83;21127;-57
2022/02/23 06:28:33;;;;;;;4.85;2.02;;;;;;;16.32;30.76;146266.81;1716889;83;21113;-58
2022/02/23 06:31:00;;;;;;;10.93;2.50;;;;;;;16.70;29.51;146361.31;1716680;83;21068;-57
2022/02/23 06:33:28;;;;;;;8.03;2.55;;;;;;;16.90;29.70;146410.53;1718153;82;21624;-62
2022/02/23 06:35:55;;;;;;;4.90;2.02;;;;;;;17.17;28.84;146474.80;1667876;84;21003;-56
2022/02/23 06:38:21;;;;;;;4.15;2.30;;;;;;;16.87;28.76;146401.72;1706169;82;21164;-56
2022/02/23 06:40:50;;;;;;;9.78;2.62;;;;;;;16.26;29.10;146252.97;1699598;82;21008;-57
2022/02/23 06:43:18;;;;;;;6.15;1.92;;;;;;;15.91;29.56;146166.06;1698963;83;21067;-57
2022/02/23 06:45:48;;;;;;;4.92;2.33;;;;;;;16.43;29.46;146293.27;1683650;84;21549;-57
2022/02/23 06:48:22;;;;;;;7.15;2.20;;;;;;;17.10;28.72;146459.69;1718279;83;21034;-60
2022/02/23 06:50:49;;;;;;;6.97;2.20;;;;;;;17.58;27.66;146576.97;1714213;83;21069;-58
2022/02/23 06:53:17;;;;;;;3.60;1.82;;;;;;;17.73;27.22;146613.48;1717386;82;21025;-58
2022/02/23 06:55:45;;;;;;;4.17;1.80;;;;;;;17.83;26.74;146638.77;1713419;82;21099;-58
2022/02/23 06:58:12;;;;;;;4.40;1.77;;;;;;;17.66;27.05;146595.88;1705744;83;21065;-58
2022/02/23 07:00:39;;;;;;;3.05;1.50;;;;;;;17.66;26.36;146595.88;1670151;85;21020;-60
2022/02/23 07:03:06;;;;;;;7.37;1.80;;;;;;;17.20;26.31;146482.36;1700850;83;21024;-62
2022/02/23 07:05:34;;;;;;;3.77;1.60;;;;;;;17.35;26.18;146520.17;1668618;84;21102;-60
2022/02/23 07:08:07;;;;;;;3.20;1.50;;;;;;;16.97;26.15;146426.94;1711165;82;21120;-59
2022/02/23 07:10:36;;;;;;;3.65;1.67;;;;;;;16.65;26.58;146348.72;1714585;82;21021;-59
2022/02/23 07:13:06;;;;;;;8.48;1.90;;;;;;;15.69;27.42;146110.59;1689508;85;21052;-64
2022/02/23 07:15:35;;;;;;;4.28;1.90;;;;;;;15.22;28.29;145996.03;1688926;83;21139;-58
2022/02/23 07:18:03;;;;;;;5.22;1.90;;;;;;;15.82;28.03;146144.66;1689400;85;21102;-59
2022/02/23 07:20:32;;;;;;;4.78;1.95;;;;;;;15.77;27.48;146132.06;1689818;84;21028;-58
2022/02/23 07:22:59;;;;;;;5.70;1.98;;;;;;;15.50;27.96;146065.28;1689891;85;21044;-57
2022/02/23 07:25:26;;;;;;;4.03;2.02;;;;;;;14.85;28.69;145905.39;1689560;83;21075;-57
2022/02/23 07:27:53;;;;;;;3.75;1.85;;;;;;;14.69;29.07;145865.14;1689856;83;21127;-57
2022/02/23 07:30:20;;;;;;;4.12;1.75;;;;;;;13.93;29.87;145678.91;1689571;84;21099;-59
2022/02/23 07:32:47;;;;;;;3.75;1.70;;;;;;;14.21;29.92;145746.83;1689671;84;21016;-57
2022/02/23 07:35:16;;;;;;;3.37;1.45;;;;;;;14.39;29.43;145792.09;1689769;83;22235;-58
2022/02/23 07:37:45;;;;;;;3.52;1.67;;;;;;;15.00;29.09;145940.64;1689565;83;21080;-58
2022/02/23 07:40:19;;;;;;;4.25;1.70;;;;;;;15.57;27.97;146081.61;1689853;85;21024;-59
2022/02/23 07:42:46;;;;;;;5.33;2.05;;;;;;;16.05;27.08;146200.05;1690009;85;21102;-58
2022/02/23 21:04:13;;;;;;;28.80;12.82;;;;;;;4.54;84.81;143380.95;1820634;79;22883;-54
2022/02/23 21:06:40;;;;;;;21.23;11.22;;;;;;;4.53;84.88;143378.48;1793786;80;21093;-55
2022/02/23 21:09:07;;;;;;;22.45;11.03;;;;;;;4.53;85.04;143378.48;1768836;80;21509;-56
2022/02/23 21:11:34;;;;;;;23.77;10.93;;;;;;;4.54;85.05;143380.95;1792449;80;21008;-56
2022/02/23 21:14:01;;;;;;;20.70;10.43;;;;;;;4.55;85.08;143382.20;1793794;80;21067;-56
2022/02/23 21:16:28;;;;;;;31.70;11.15;;;;;;;4.54;85.43;143379.72;1765724;80;20996;-54
2022/02/23 21:18:55;;;;;;;19.42;9.48;;;;;;;4.55;85.70;143382.20;1771314;80;21510;-62
2022/02/23 21:21:23;;;;;;;21.25;10.08;;;;;;;4.55;85.67;143383.48;1717175;83;21064;-57
2022/02/23 21:23:51;;;;;;;20.72;9.65;;;;;;;4.52;85.71;143375.95;1731438;83;21071;-56
2022/02/23 21:26:21;;;;;;;22.13;10.45;;;;;;;4.51;85.96;143373.48;1738723;82;21015;-57
2022/02/23 21:28:48;;;;;;;23.62;11.08;;;;;;;4.54;86.16;143379.72;1740936;82;21027;-56
2022/02/23 21:31:18;;;;;;;25.17;11.60;;;;;;;4.56;86.24;143385.97;1742380;82;21027;-57
2022/02/23 21:33:45;;;;;;;26.40;12.90;;;;;;;4.38;86.67;143341.05;1729366;82;20998;-59
2022/02/23 21:36:29;;;;;;;22.25;11.63;;;;;;;4.31;87.74;143323.58;1728765;83;21012;-57
2022/02/23 21:38:40;;;;;;;24.18;10.90;;;;;;;4.30;88.04;143322.34;1724320;83;21010;-57
2022/02/23 21:41:06;;;;;;;24.10;13.38;;;;;;;4.32;88.16;143326.05;1710140;83;21601;-59
2022/02/23 21:43:32;;;;;;;25.95;11.83;;;;;;;4.29;88.21;143318.56;1737803;82;21084;-59
2022/02/23 21:45:59;;;;;;;24.05;11.38;;;;;;;4.26;88.44;143311.09;1721754;82;21019;-58
2022/02/23 21:48:25;;;;;;;25.65;13.20;;;;;;;4.32;88.65;143327.28;1714108;82;21039;-59
2022/02/23 21:50:52;;;;;;;22.30;12.10;;;;;;;4.37;88.67;143338.53;1709259;82;21071;-58
2022/02/23 21:53:18;;;;;;;29.72;12.30;;;;;;;4.40;88.47;143344.77;1708604;84;21098;-59
2022/02/23 21:55:47;;;;;;;38.53;20.27;;;;;;;4.43;88.53;143352.28;1708648;82;21087;-58
2022/02/23 21:58:15;;;;;;;28.45;13.13;;;;;;;4.46;88.63;143361.00;1720774;82;21019;-58
2022/02/23 22:00:41;;;;;;;28.98;14.33;;;;;;;4.49;88.47;143368.48;1735441;82;21506;-59
2022/02/23 22:03:08;;;;;;;28.85;14.23;;;;;;;4.50;88.43;143369.72;1727616;83;21146;-59
2022/02/23 22:05:34;;;;;;;24.82;12.78;;;;;;;4.49;88.41;143367.25;1731455;83;21052;-60
2022/02/23 22:08:01;;;;;;;22.10;11.12;;;;;;;4.45;88.19;143358.53;1785172;80;21020;-59
2022/02/23 22:10:28;;;;;;;26.80;11.15;;;;;;;4.41;88.22;143347.28;1759836;81;21055;-60
2022/02/23 22:12:58;;;;;;;31.10;12.78;;;;;;;4.38;88.39;143341.05;1761494;80;21071;-59
2022/02/23 22:15:25;;;;;;;27.98;12.93;;;;;;;4.38;88.37;143341.05;1759202;81;21058;-59
2022/02/23 22:17:52;;;;;;;23.60;11.50;;;;;;;4.39;88.29;143342.28;1759138;81;21013;-61
2022/02/23 22:20:19;;;;;;;26.62;12.37;;;;;;;4.40;88.30;143346.05;1722514;83;21017;-60
2022/02/23 22:22:46;;;;;;;25.45;12.13;;;;;;;4.41;88.22;143348.53;1774741;80;21088;-59
2022/02/23 22:25:12;;;;;;;23.32;11.93;;;;;;;4.39;88.14;143343.53;1759457;80;21012;-59
2022/02/23 22:27:42;;;;;;;26.25;12.35;;;;;;;4.35;88.09;143334.81;1759394;81;21553;-60
2022/02/23 22:30:10;;;;;;;21.80;11.53;;;;;;;4.34;88.15;143331.05;1773677;79;21008;-59
2022/02/23 22:32:37;;;;;;;24.00;12.55;;;;;;;4.28;88.22;143317.33;1790125;79;21000;-60
2022/02/23 22:35:05;;;;;;;24.63;13.35;;;;;;;4.25;88.45;143308.56;1790251;80;21455;-59
2022/02/23 22:37:32;;;;;;;23.85;12.03;;;;;;;4.28;88.62;143317.33;1790417;80;21028;-60
2022/02/23 22:39:59;;;;;;;26.70;13.35;;;;;;;4.31;88.53;143323.58;1771824;80;20983;-60
2022/02/23 22:42:26;;;;;;;27.50;13.05;;;;;;;4.34;88.58;143332.28;1759400;80;21530;-59
2022/02/23 22:44:52;;;;;;;29.05;13.68;;;;;;;4.34;88.65;143332.28;1759276;80;20996;-59
2022/02/23 22:47:19;;;;;;;25.92;13.10;;;;;;;4.31;88.71;143323.58;1760978;80;21012;-60
2022/02/23 22:49:45;;;;;;;21.50;12.47;;;;;;;4.25;88.77;143308.56;1759052;80;21361;-60
2022/02/23 22:52:12;;;;;;;32.98;13.05;;;;;;;4.14;88.86;143283.62;1759251;81;20995;-58
2022/02/23 22:54:39;;;;;;;27.35;13.45;;;;;;;4.05;89.34;143261.19;1760903;80;21019;-58
2022/02/23 22:57:05;;;;;;;31.65;14.83;;;;;;;4.04;89.71;143257.44;1759261;80;21513;-58
2022/02/23 22:59:34;;;;;;;28.77;13.55;;;;;;;4.08;89.85;143268.67;1759714;80;21101;-58
2022/02/23 23:02:00;;;;;;;27.93;13.53;;;;;;;4.12;89.86;143278.67;1759023;81;21036;-57
2022/02/23 23:04:27;;;;;;;26.40;14.45;;;;;;;4.16;90.03;143286.14;1757271;80;21063;-58
2022/02/23 23:06:54;;;;;;;28.25;14.55;;;;;;;4.17;89.92;143288.63;1788018;80;21094;-58
2022/02/23 23:09:20;;;;;;;24.45;14.05;;;;;;;4.17;90.02;143288.63;1788286;80;21031;-58
2022/02/23 23:11:48;;;;;;;24.00;13.80;;;;;;;4.17;89.98;143289.86;1759276;80;21064;-57
2022/02/23 23:14:14;;;;;;;25.17;12.80;;;;;;;4.16;90.11;143287.39;1761298;80;21470;-57
2022/02/23 23:16:41;;;;;;;30.35;15.20;;;;;;;4.17;90.06;143289.86;1757532;80;21043;-55
2022/02/23 23:19:08;;;;;;;26.82;14.63;;;;;;;4.20;90.10;143296.09;1756935;80;21028;-55
2022/02/23 23:21:36;;;;;;;25.27;14.13;;;;;;;4.22;90.10;143302.33;1757162;80;21527;-54
2022/02/23 23:24:04;;;;;;;27.82;15.35;;;;;;;4.26;89.90;143311.09;1757311;82;21554;-54
2022/02/23 23:26:32;;;;;;;27.95;15.80;;;;;;;4.27;89.89;143314.81;1769726;80;21015;-55
2022/02/23 23:28:59;;;;;;;26.25;15.20;;;;;;;4.30;89.83;143322.34;1788233;80;21043;-55
2022/02/23 23:31:25;;;;;;;27.55;15.45;;;;;;;4.31;89.67;143323.58;1787357;80;21530;-55
2022/02/23 23:33:52;;;;;;;30.40;16.73;;;;;;;4.22;89.74;143301.09;1770707;80;21017;-55
2022/02/23 23:36:20;;;;;;;27.32;13.88;;;;;;;4.14;90.15;143283.62;1762699;80;21502;-55
2022/02/23 23:38:47;;;;;;;21.45;13.40;;;;;;;4.13;90.19;143279.91;1788218;80;21031;-54
2022/02/23 23:41:16;;;;;;;28.55;15.85;;;;;;;4.10;90.23;143272.44;1760883;80;21003;-55
2022/02/23 23:43:43;;;;;;;24.77;14.07;;;;;;;4.10;90.46;143272.44;1756976;82;21059;-54
2022/02/23 23:46:10;;;;;;;23.07;14.65;;;;;;;4.14;90.60;143283.62;1757046;82;21032;-55
2022/02/23 23:48:38;;;;;;;31.10;15.00;;;;;;;4.19;90.49;143294.86;1757076;82;21011;-55
2022/02/23 23:51:06;;;;;;;26.40;14.30;;;;;;;4.17;90.50;143288.63;1757507;81;21521;-54
2022/02/23 23:53:34;;;;;;;24.67;12.98;;;;;;;4.20;90.48;143296.09;1772324;80;21055;-55
2022/02/23 23:56:01;;;;;;;22.05;13.05;;;;;;;4.20;90.35;143296.09;1788203;80;21063;-57
2022/02/23 23:58:28;;;;;;;24.75;12.30;;;;;;;4.21;90.38;143298.63;1787862;80;21529;-57
